Koeln, Germany

5:11 AM CET on February 08, 2016 (GMT +0100)
near Airport Cologne/Bonn | | Change Station
CLOSE
Current Station
Personal Weather Station
Location: Köln, NORDRHEIN-WESTFALEN
Elevation: 180 ft
Nearby Weather Stations

Elev 180 ft 50.88 °N, 7.10 °E | Updated 1 minute ago

Mostly Cloudy
Mostly Cloudy
46.2 °F
Feels Like 44 °F
N
4.0
Wind Variable Wind from SW
Gusts 10.0 mph

Today
High -- | Low -- °F
--% Chance of Precip.
Yesterday
High -- | Low -- °F
Precip. -- in
Pressure 29.44 in
Visibility 6.2 miles
Clouds Scattered Clouds 2800 ft
Scattered Clouds 6000 ft
Mostly Cloudy 10000 ft
Windchill 44 °F
Dew Point 34 °F
Humidity 63%
Rainfall 0.04 in
Snow Depth Not available.
7:57 AM 5:34 PM
Waning Crescent, 0% visible
METAR EDDK 080350Z 18017KT 9999 SCT028 SCT060 BKN100 08/03 Q0997 NOSIG
Pressure 29.44 in
Visibility 6.2 miles
Clouds Scattered Clouds 2800 ft
Scattered Clouds 6000 ft
Mostly Cloudy 10000 ft
Windchill 44 °F
Dew Point 34 °F
Humidity 63%
Rainfall 0.04 in
Snow Depth Not available.
7:57 AM 5:34 PM
Waning Crescent, 0% visible
METAR EDDK 080350Z 18017KT 9999 SCT028 SCT060 BKN100 08/03 Q0997 NOSIG

10-Day Weather Forecast

Almanac

Astronomy

Feb. 08, 2016 Rise Set
Actual Time
Civil Twilight
Nautical Twilight
Astronomical Twilight
Moon
Length of Visible Light
Length of Day
Tomorrow will be .
, % of the Moon is Illuminated

Today's Extremes

Country Highs Country Lows

Community

WunderPhotos

Upload Photos

1,891,379 photos uploaded!

WunderBlog® & News

Nearby

Air Quality

  Air Quality AQ Index Pollutant
Not available.

Snow Depth

Station Depth Elevation

Earthquake Activity

City Distance Mag. Time & Date
Minimum magnitude displayed is 2.5.

Coastal Water Temperatures

Place Temperature

Stations

Nearby Weather Stations

Station Location Temp. Windchill Dew Point Humidity Wind Precip. Elev Updated Type